METAR AND TAF INFORMATION
METAR FOR KDAB
KDAB 211653Z 02011KT 10SM SCT027 SCT065 BKN130 29/24 A3009 RMK AO2 SLP188 T02940239
KDAB 211644Z 03010KT 10SM SCT027 SCT065 29/24 A3009 RMK AO2 T02940244
KDAB 211616Z 07009KT 10SM BKN027 BKN034 31/24 A3009 RMK AO2 T03060239
KDAB 211553Z 06009KT 10SM SCT034CB BKN090 31/24 A3008 RMK AO2 SLP187 CB N-NE SW MOV SW T03060239
KDAB 211453Z 05007KT 10SM FEW019 SCT034 BKN200 29/24 A3009 RMK AO2 SLP187 60000 T02940244 51006
KDAB 211737Z 2118/2218 04010KT P6SM VCSH SCT025 BKN050 BKN130
FM212200 10009KT P6SM VCSH BKN040 BKN100
FM220000 16004KT P6SM VCSH BKN050 BKN100
FM220600 18003KT P6SM BKN050 BKN100
FM221700 12010KT P6SM VCSH BKN060

 AIRPORT MAP

 RUNWAY INFORMATION
Runway 07L Runway length 10500 ft Runway width 150 ft
Runway elevation 28 ft Runway displaced threshold 690 ft Runway heading 65
Runway 25R Runway length 10500 ft Runway width 150 ft
Runway elevation 32 ft Runway displaced threshold 0 ft Runway heading 245
Runway 07R Runway length 3195 ft Runway width 100 ft
Runway elevation 28 ft Runway displaced threshold 0 ft Runway heading 65
Runway 25L Runway length 3195 ft Runway width 100 ft
Runway elevation 32 ft Runway displaced threshold 0 ft Runway heading 245
Runway 16 Runway length 6001 ft Runway width 150 ft
Runway elevation 31 ft Runway displaced threshold 0 ft Runway heading 157
Runway 34 Runway length 6001 ft Runway width 150 ft
Runway elevation 32 ft Runway displaced threshold 0 ft Runway heading 337

 AIRPORT FREQUENCIES
Type APP Name APP Frequency 118.85 MHZ
Type ATIS Name ATIS Frequency 120.05 MHZ
Type CLD Name CLNC DEL Frequency 119.3 MHZ
Type DEP Name DEP Frequency 123.9 MHZ
Type GND Name GND Frequency 121.9 MHZ
Type TWR Name TWR Frequency 120.7 MHZ
Type UNIC Name UNICOM Frequency 122.95 MHZ

 AIRPORT NEAR NAVIGATION AIDS
Type NDB Name Tomok Frequency 263 KHZ

-